Time;durP1;ratioP1;P1;durP2;ratioP2;P2;SDS_P1;SDS_P2;PMS_P1;PMS_P2;Temp;Humidity;BMP_temperature;BMP_pressure;BME280_temperature;BME280_humidity;BME280_pressure;Samples;Min_cycle;Max_cycle;Signal;HPM_P1;HPM_P2
2020/12/03 00:01:11;;;;;;;37.50;28.47;;;1.40;99.90;;;;;;5073243;28;20866;-78
2020/12/03 00:03:44;;;;;;;33.57;26.30;;;1.40;99.90;;;;;;5065009;28;20445;-79
2020/12/03 00:06:17;;;;;;;31.87;26.73;;;1.40;99.90;;;;;;5072665;28;21149;-79
2020/12/03 00:08:48;;;;;;;35.63;28.17;;;1.40;99.90;;;;;;5070824;28;20993;-78
2020/12/03 00:11:15;;;;;;;34.63;26.50;;;1.40;99.90;;;;;;5071304;28;20514;-78
2020/12/03 00:13:42;;;;;;;32.27;25.43;;;1.40;99.90;;;;;;5073166;28;20440;-78
2020/12/03 00:16:08;;;;;;;33.33;26.67;;;1.40;99.90;;;;;;5075142;28;20440;-78
2020/12/03 00:18:36;;;;;;;36.27;26.87;;;1.40;99.90;;;;;;5075184;28;20862;-77
2020/12/03 00:21:07;;;;;;;36.53;27.47;;;1.50;99.90;;;;;;5076545;28;20444;-78
2020/12/03 00:23:34;;;;;;;36.07;27.07;;;1.40;99.90;;;;;;5076625;28;20444;-79
2020/12/03 00:26:00;;;;;;;37.10;27.60;;;1.30;99.90;;;;;;5075534;28;20575;-77
2020/12/03 00:28:32;;;;;;;37.50;26.40;;;1.30;99.90;;;;;;5074093;28;20849;-78
2020/12/03 00:30:59;;;;;;;35.70;27.03;;;1.20;99.90;;;;;;5074933;28;20448;-78
2020/12/03 00:33:26;;;;;;;39.00;27.17;;;1.20;99.90;;;;;;5076918;28;20437;-78
2020/12/03 00:35:53;;;;;;;35.73;27.73;;;1.20;99.90;;;;;;5075442;28;20448;-79
2020/12/03 00:38:21;;;;;;;36.00;25.83;;;1.20;99.90;;;;;;5074255;28;20530;-78
2020/12/03 00:40:49;;;;;;;41.70;27.23;;;1.30;99.90;;;;;;5074835;28;20444;-77
2020/12/03 00:43:16;;;;;;;38.23;27.13;;;1.30;99.90;;;;;;5076626;28;20945;-78
2020/12/03 00:45:46;;;;;;;32.07;27.37;;;1.30;99.90;;;;;;5074269;28;20487;-78
2020/12/03 00:48:13;;;;;;;36.00;26.27;;;1.30;99.90;;;;;;5074215;28;20451;-78
2020/12/03 00:50:39;;;;;;;33.07;26.70;;;1.30;99.90;;;;;;5074540;28;20453;-79
2020/12/03 00:53:05;;;;;;;36.90;27.33;;;1.20;99.90;;;;;;5074615;28;20477;-78
2020/12/03 00:55:32;;;;;;;33.03;26.63;;;1.30;99.90;;;;;;5074138;28;20442;-78
2020/12/03 00:57:58;;;;;;;33.97;26.73;;;1.30;99.90;;;;;;5076054;28;20457;-77
2020/12/03 01:00:25;;;;;;;36.17;27.00;;;1.30;99.90;;;;;;5073813;28;20972;-78
2020/12/03 01:02:52;;;;;;;32.20;26.63;;;1.40;99.90;;;;;;5075488;28;20491;-78
2020/12/03 01:05:19;;;;;;;39.10;27.93;;;1.40;99.90;;;;;;5075922;28;20437;-78
2020/12/03 01:07:45;;;;;;;28.87;24.87;;;1.40;99.90;;;;;;5073991;28;21115;-78
2020/12/03 01:10:17;;;;;;;33.53;26.30;;;1.30;99.90;;;;;;5074926;28;20499;-78
2020/12/03 01:12:43;;;;;;;36.07;27.83;;;1.30;99.90;;;;;;5075851;28;21028;-78
2020/12/03 01:15:10;;;;;;;36.23;28.00;;;1.40;99.90;;;;;;5075311;28;20876;-78
2020/12/03 01:17:36;;;;;;;36.83;27.50;;;1.30;99.90;;;;;;5075034;28;20461;-78
2020/12/03 01:20:07;;;;;;;31.77;25.87;;;1.30;99.90;;;;;;5074977;28;20918;-78
2020/12/03 01:22:34;;;;;;;34.83;27.10;;;1.40;99.90;;;;;;5075005;28;20487;-78
2020/12/03 01:25:00;;;;;;;36.67;27.63;;;1.30;99.90;;;;;;5074609;28;20502;-78
2020/12/03 01:27:26;;;;;;;40.87;28.73;;;1.30;99.90;;;;;;5074086;28;20487;-78
2020/12/03 01:29:53;;;;;;;35.23;27.33;;;1.30;99.90;;;;;;5074587;28;20991;-78
2020/12/03 01:32:19;;;;;;;35.17;27.57;;;1.30;99.90;;;;;;5075363;28;20473;-78
2020/12/03 01:34:45;;;;;;;41.20;28.67;;;1.30;99.90;;;;;;5074221;28;20961;-79
2020/12/03 01:37:15;;;;;;;39.47;28.53;;;1.30;99.90;;;;;;5073988;28;20510;-79
2020/12/03 01:39:42;;;;;;;40.10;28.90;;;1.30;99.90;;;;;;5075147;28;20438;-78
2020/12/03 01:42:08;;;;;;;38.90;28.83;;;1.30;99.90;;;;;;5074926;28;20793;-78
2020/12/03 01:44:39;;;;;;;32.93;26.27;;;1.30;99.90;;;;;;5075364;28;20936;-78
2020/12/03 01:47:06;;;;;;;33.80;26.30;;;1.30;99.90;;;;;;5074691;28;20864;-78
2020/12/03 01:49:34;;;;;;;37.40;27.97;;;1.30;99.90;;;;;;5072730;28;20504;-78
2020/12/03 01:52:01;;;;;;;34.47;27.10;;;1.30;99.90;;;;;;5074656;28;20476;-78
2020/12/03 01:54:28;;;;;;;37.80;29.00;;;1.30;99.90;;;;;;5074189;28;20498;-78
2020/12/03 01:57:20;;;;;;;37.70;26.40;;;1.30;99.90;;;;;;5072777;28;20449;-77
2020/12/03 01:59:56;;;;;;;34.03;27.70;;;1.20;99.90;;;;;;5074350;28;20789;-78
2020/12/03 02:02:22;;;;;;;37.73;29.30;;;1.20;99.90;;;;;;5074126;28;20949;-78
2020/12/03 02:05:08;;;;;;;39.60;28.60;;;1.10;99.90;;;;;;5075086;28;21055;-79
2020/12/03 02:07:34;;;;;;;35.33;27.70;;;1.10;99.90;;;;;;5075336;28;20937;-79
2020/12/03 02:10:01;;;;;;;40.57;28.97;;;1.10;99.90;;;;;;5098031;22;20524;-81
2020/12/03 02:12:27;;;;;;;40.30;28.90;;;1.10;99.90;;;;;;5056026;28;20469;-81
2020/12/03 02:14:54;;;;;;;41.20;29.53;;;1.10;99.90;;;;;;5056998;28;20440;-81
2020/12/03 02:17:20;;;;;;;39.63;28.47;;;1.10;99.90;;;;;;5073999;28;20428;-81
2020/12/03 02:19:53;;;;;;;33.40;27.97;;;1.10;99.90;;;;;;5058890;28;20450;-81
2020/12/03 02:22:19;;;;;;;38.10;28.87;;;1.20;99.90;;;;;;5035603;28;20496;-81
2020/12/03 02:24:46;;;;;;;37.67;28.30;;;1.20;99.90;;;;;;5036066;28;20467;-81
2020/12/03 02:27:16;;;;;;;36.73;28.03;;;1.20;99.90;;;;;;5053962;28;20456;-81
2020/12/03 02:29:42;;;;;;;36.67;26.83;;;1.20;99.90;;;;;;5052659;28;20434;-81
2020/12/03 02:32:09;;;;;;;36.70;27.87;;;1.20;99.90;;;;;;5053458;28;20528;-80
2020/12/03 02:34:35;;;;;;;32.37;26.83;;;1.20;99.90;;;;;;5035557;28;20446;-81
2020/12/03 02:37:04;;;;;;;36.90;28.67;;;1.20;99.90;;;;;;5034841;28;20446;-81
2020/12/03 02:39:33;;;;;;;38.10;28.17;;;1.20;99.90;;;;;;5052264;28;20442;-81
2020/12/03 02:42:00;;;;;;;38.43;28.77;;;1.20;99.90;;;;;;5035168;28;20493;-81
2020/12/03 02:44:26;;;;;;;34.63;28.63;;;1.20;99.90;;;;;;5053509;28;20432;-81
2020/12/03 02:46:52;;;;;;;35.20;27.43;;;1.20;99.90;;;;;;5035318;28;20500;-81
2020/12/03 02:49:19;;;;;;;34.43;26.70;;;1.20;99.90;;;;;;5034401;28;20469;-80
2020/12/03 02:51:46;;;;;;;35.40;27.03;;;1.20;99.90;;;;;;5052705;28;20465;-81
2020/12/03 02:54:14;;;;;;;39.70;28.30;;;1.20;99.90;;;;;;5052669;28;20426;-81
2020/12/03 02:56:41;;;;;;;38.00;28.37;;;1.20;99.90;;;;;;5052647;28;20426;-81
2020/12/03 02:59:09;;;;;;;42.53;28.77;;;1.30;99.90;;;;;;5048299;28;20466;-80
2020/12/03 03:01:35;;;;;;;32.30;26.87;;;1.30;99.90;;;;;;5052496;28;20441;-81
2020/12/03 03:04:04;;;;;;;34.43;27.70;;;1.30;99.90;;;;;;5020462;28;20666;-81
2020/12/03 03:06:30;;;;;;;37.83;28.23;;;1.30;99.90;;;;;;5034787;28;20487;-81
2020/12/03 03:08:56;;;;;;;37.87;29.00;;;1.30;99.90;;;;;;5030345;28;20614;-81
2020/12/03 03:11:23;;;;;;;34.30;28.83;;;1.30;99.90;;;;;;5032430;28;20435;-81
2020/12/03 03:13:50;;;;;;;41.33;29.13;;;1.30;99.90;;;;;;5032045;28;20439;-81
2020/12/03 03:16:16;;;;;;;39.77;28.33;;;1.30;99.90;;;;;;5032391;28;20438;-81
2020/12/03 03:18:42;;;;;;;34.37;27.00;;;1.30;99.90;;;;;;5035632;28;20503;-81
2020/12/03 03:21:09;;;;;;;35.10;27.93;;;1.40;99.90;;;;;;5034411;28;20447;-81
2020/12/03 03:23:36;;;;;;;31.10;26.40;;;1.40;99.90;;;;;;5052050;28;20518;-81
2020/12/03 03:26:02;;;;;;;38.23;29.77;;;1.40;99.90;;;;;;5052089;28;20540;-81
2020/12/03 03:28:29;;;;;;;38.07;28.13;;;1.50;99.90;;;;;;5014665;28;20521;-81
2020/12/03 03:30:55;;;;;;;41.57;29.70;;;1.50;99.90;;;;;;5030611;28;20451;-81
2020/12/03 03:33:22;;;;;;;35.03;28.67;;;1.40;99.90;;;;;;5032041;28;20482;-81
2020/12/03 03:35:48;;;;;;;41.47;28.53;;;1.40;99.90;;;;;;5031125;28;20874;-80
2020/12/03 03:38:15;;;;;;;38.33;29.13;;;1.40;99.90;;;;;;5030650;28;20675;-81
2020/12/03 03:40:41;;;;;;;35.80;27.70;;;1.40;99.90;;;;;;5031901;28;21014;-80
2020/12/03 03:43:07;;;;;;;33.57;27.50;;;1.50;99.90;;;;;;5051174;28;20430;-81
2020/12/03 03:45:35;;;;;;;34.90;26.90;;;1.50;99.90;;;;;;5052150;28;20426;-81
2020/12/03 03:48:01;;;;;;;33.07;26.73;;;1.60;99.90;;;;;;5051242;28;20460;-81
2020/12/03 03:50:28;;;;;;;32.63;26.53;;;1.50;99.90;;;;;;5032169;28;20469;-81
2020/12/03 03:52:54;;;;;;;31.63;26.30;;;1.50;99.90;;;;;;5034550;28;20565;-81
2020/12/03 03:55:21;;;;;;;36.27;27.73;;;1.50;99.90;;;;;;5034071;28;20457;-81
2020/12/03 03:57:47;;;;;;;35.67;27.70;;;1.50;99.90;;;;;;5051678;28;20484;-80
2020/12/03 04:00:15;;;;;;;35.27;28.53;;;1.50;99.90;;;;;;5050818;28;20457;-79
2020/12/03 04:02:43;;;;;;;34.07;26.97;;;1.50;99.90;;;;;;5032874;28;20446;-79
2020/12/03 04:05:09;;;;;;;36.97;27.40;;;1.50;99.90;;;;;;5051430;28;20922;-78
2020/12/03 04:07:36;;;;;;;32.60;26.23;;;1.60;99.90;;;;;;5052335;28;20426;-80
2020/12/03 04:10:02;;;;;;;33.10;27.03;;;1.60;99.90;;;;;;5049795;28;20894;-79
2020/12/03 04:12:29;;;;;;;33.07;25.43;;;1.60;99.90;;;;;;5051413;28;20469;-81
2020/12/03 04:14:55;;;;;;;38.70;27.37;;;1.70;99.90;;;;;;5050711;28;20472;-80
2020/12/03 04:17:21;;;;;;;34.30;26.53;;;1.70;99.90;;;;;;5033163;28;20454;-81
2020/12/03 04:19:48;;;;;;;36.37;26.00;;;1.70;99.90;;;;;;5050750;28;20446;-81
2020/12/03 04:22:14;;;;;;;31.90;26.80;;;1.70;99.90;;;;;;5035004;28;20443;-80
2020/12/03 04:24:41;;;;;;;29.10;24.17;;;1.80;99.90;;;;;;5060128;28;20454;-81
2020/12/03 04:27:07;;;;;;;32.20;25.70;;;1.70;99.90;;;;;;5069146;28;20430;-81
2020/12/03 04:29:33;;;;;;;28.37;25.00;;;1.70;99.90;;;;;;5052245;28;20458;-82
2020/12/03 04:31:59;;;;;;;36.93;27.60;;;1.60;99.90;;;;;;5055110;28;20488;-82
2020/12/03 04:34:26;;;;;;;31.43;25.23;;;1.60;99.90;;;;;;5052416;28;20445;-82
2020/12/03 04:36:53;;;;;;;28.73;25.13;;;1.60;99.90;;;;;;5052677;28;20472;-82
2020/12/03 04:39:19;;;;;;;26.80;23.83;;;1.60;99.90;;;;;;5050580;28;20457;-81
2020/12/03 04:41:45;;;;;;;30.77;24.70;;;1.70;99.90;;;;;;5046398;28;20454;-82
2020/12/03 04:44:18;;;;;;;31.57;25.57;;;1.60;99.90;;;;;;5048581;28;20474;-82
2020/12/03 04:46:55;;;;;;;27.90;24.50;;;1.70;99.90;;;;;;5065919;28;20438;-82
2020/12/03 04:49:33;;;;;;;27.40;24.50;;;1.60;99.90;;;;;;5042602;28;20504;-82
2020/12/03 04:52:37;;;;;;;26.13;23.37;;;1.60;99.90;;;;;;5044217;28;20467;-82
2020/12/03 04:55:18;;;;;;;26.33;23.13;;;1.70;99.90;;;;;;5027149;28;20475;-82
2020/12/03 04:57:50;;;;;;;26.73;23.10;;;1.70;99.90;;;;;;5043616;28;20431;-81
2020/12/03 05:00:29;;;;;;;28.17;25.13;;;1.70;99.90;;;;;;5022906;28;20923;-82
2020/12/03 05:03:27;;;;;;;26.37;23.57;;;1.70;99.90;;;;;;5044218;28;20518;-80
2020/12/03 05:06:05;;;;;;;27.83;23.83;;;1.80;99.90;;;;;;5024635;28;20537;-78
2020/12/03 05:08:38;;;;;;;26.97;23.03;;;1.80;99.90;;;;;;5038366;28;20485;-81
2020/12/03 05:11:13;;;;;;;24.97;22.07;;;1.80;99.90;;;;;;5057115;28;20426;-76
2020/12/03 05:13:46;;;;;;;26.50;22.93;;;1.80;99.90;;;;;;5038745;28;20515;-80
2020/12/03 05:16:16;;;;;;;26.43;22.83;;;1.80;99.90;;;;;;5056628;28;20492;-80
2020/12/03 05:18:54;;;;;;;26.77;23.10;;;1.80;99.90;;;;;;5038044;28;20465;-80
2020/12/03 05:21:24;;;;;;;23.17;20.83;;;1.80;99.90;;;;;;5055997;28;20503;-79
2020/12/03 05:23:51;;;;;;;23.90;21.33;;;1.80;99.90;;;;;;5040281;28;20448;-80
2020/12/03 05:26:20;;;;;;;25.27;22.77;;;1.80;99.90;;;;;;5058458;28;20438;-79
2020/12/03 05:28:54;;;;;;;25.27;22.60;;;1.80;99.90;;;;;;5030705;28;20498;-79
2020/12/03 05:31:26;;;;;;;23.53;21.17;;;1.80;99.90;;;;;;5056889;28;20492;-79
2020/12/03 05:33:53;;;;;;;24.53;20.93;;;1.80;99.90;;;;;;5057153;28;20469;-79
2020/12/03 05:36:26;;;;;;;23.73;21.17;;;1.80;99.90;;;;;;5036788;28;20464;-80
2020/12/03 05:38:54;;;;;;;22.50;20.23;;;1.80;99.90;;;;;;5036628;28;20464;-79
2020/12/03 05:41:22;;;;;;;22.40;20.23;;;1.80;99.90;;;;;;5056293;28;20444;-81
2020/12/03 05:43:48;;;;;;;22.80;20.50;;;1.80;99.90;;;;;;5039640;28;20976;-81
2020/12/03 05:46:17;;;;;;;23.70;21.30;;;1.80;99.90;;;;;;5038137;28;20452;-82
2020/12/03 05:48:55;;;;;;;23.37;21.20;;;1.70;99.90;;;;;;5055154;28;20515;-80
2020/12/03 05:51:27;;;;;;;23.20;20.93;;;1.70;99.90;;;;;;5038280;28;20500;-80
2020/12/03 05:54:00;;;;;;;22.80;20.60;;;1.80;99.90;;;;;;5038098;28;20831;-78
2020/12/03 05:56:27;;;;;;;25.87;23.33;;;1.80;99.90;;;;;;5055594;28;20434;-78
2020/12/03 05:58:54;;;;;;;24.20;21.63;;;1.80;99.90;;;;;;5035567;28;20476;-78
2020/12/03 06:01:23;;;;;;;22.53;20.37;;;1.80;99.90;;;;;;5037074;28;20446;-79
2020/12/03 06:03:59;;;;;;;23.73;21.27;;;1.80;99.90;;;;;;5035371;28;20883;-79
2020/12/03 06:06:59;;;;;;;23.10;20.87;;;1.80;99.90;;;;;;5035808;28;20868;-79
2020/12/03 06:09:44;;;;;;;21.87;19.77;;;1.80;99.90;;;;;;5003993;28;20492;-80
2020/12/03 06:12:28;;;;;;;22.97;20.83;;;1.90;99.90;;;;;;5053552;28;20465;-80
2020/12/03 06:15:07;;;;;;;24.57;22.17;;;1.80;99.90;;;;;;5050834;28;20438;-79
2020/12/03 06:17:48;;;;;;;23.37;21.20;;;1.90;99.90;;;;;;5056305;28;20434;-80
2020/12/03 06:20:38;;;;;;;23.30;20.97;;;1.90;99.90;;;;;;5037350;28;21007;-80
2020/12/03 06:23:21;;;;;;;23.10;20.57;;;1.90;99.90;;;;;;5038104;28;20450;-80
2020/12/03 06:25:57;;;;;;;25.33;22.63;;;1.90;99.90;;;;;;5037201;28;20434;-80
2020/12/03 06:29:01;;;;;;;23.53;21.07;;;1.90;99.90;;;;;;5033876;28;20501;-81
2020/12/03 06:31:34;;;;;;;23.63;21.33;;;1.90;99.90;;;;;;5011070;28;20442;-80
2020/12/03 06:34:03;;;;;;;21.77;19.60;;;1.90;99.90;;;;;;5036661;28;20982;-81
2020/12/03 06:36:40;;;;;;;22.33;19.87;;;1.90;99.90;;;;;;5055022;28;20433;-81
2020/12/03 06:39:23;;;;;;;21.23;19.23;;;1.90;99.90;;;;;;5054305;28;20965;-80
2020/12/03 06:41:55;;;;;;;20.83;19.00;;;2.00;99.90;;;;;;5055168;28;20422;-80
2020/12/03 06:44:25;;;;;;;20.67;18.50;;;2.00;99.90;;;;;;5037678;28;20507;-80
2020/12/03 06:47:25;;;;;;;20.40;18.43;;;1.90;99.90;;;;;;5056399;28;20461;-80
2020/12/03 06:50:08;;;;;;;20.47;18.57;;;2.00;99.90;;;;;;5055240;28;20462;-81
2020/12/03 06:52:58;;;;;;;20.80;18.80;;;2.00;99.90;;;;;;5038225;28;20531;-81
2020/12/03 06:56:03;;;;;;;20.47;18.50;;;2.00;99.90;;;;;;5036585;28;20440;-81
2020/12/03 06:59:10;;;;;;;20.63;18.63;;;2.00;99.90;;;;;;4954367;28;20525;-79
2020/12/03 07:02:06;;;;;;;20.83;18.83;;;2.00;99.90;;;;;;4961140;28;20919;-80
2020/12/03 07:05:07;;;;;;;19.70;17.93;;;2.00;99.90;;;;;;5050079;28;20503;-80
2020/12/03 07:08:13;;;;;;;19.10;17.30;;;2.00;99.90;;;;;;5045061;28;20451;-80
2020/12/03 07:11:16;;;;;;;18.60;17.00;;;2.10;99.90;;;;;;5050620;28;20483;-81
2020/12/03 07:14:21;;;;;;;19.37;17.67;;;2.10;99.90;;;;;;5017672;28;20912;-80
2020/12/03 07:17:15;;;;;;;19.63;17.83;;;2.10;99.90;;;;;;5014981;28;20450;-81
2020/12/03 07:20:08;;;;;;;19.43;17.70;;;2.10;99.90;;;;;;5032163;28;20525;-81
2020/12/03 07:22:37;;;;;;;19.63;17.80;;;2.10;99.90;;;;;;5040163;28;20434;-81
2020/12/03 07:25:06;;;;;;;19.43;17.63;;;2.10;99.90;;;;;;5037009;28;20870;-81
2020/12/03 07:28:15;;;;;;;20.17;17.90;;;2.10;99.90;;;;;;5051860;28;20429;-81
2020/12/03 07:30:47;;;;;;;19.27;17.57;;;2.20;99.90;;;;;;5009227;28;20453;-81
2020/12/03 07:33:22;;;;;;;19.50;17.63;;;2.20;99.90;;;;;;5050662;28;20470;-81
2020/12/03 07:36:00;;;;;;;19.37;17.67;;;2.20;99.90;;;;;;5047744;28;20429;-81
2020/12/03 07:38:32;;;;;;;19.33;17.63;;;2.20;99.90;;;;;;5024283;28;20447;-81
2020/12/03 07:40:59;;;;;;;19.03;17.23;;;2.20;99.90;;;;;;5028819;28;20497;-80
2020/12/03 07:43:29;;;;;;;18.87;17.17;;;2.20;99.90;;;;;;5042010;28;20493;-81
2020/12/03 07:45:56;;;;;;;18.50;16.90;;;2.20;99.90;;;;;;5035786;28;20431;-80
2020/12/03 07:48:42;;;;;;;18.53;16.80;;;2.30;99.90;;;;;;5031594;28;20485;-81
2020/12/03 07:51:12;;;;;;;17.83;16.33;;;2.30;99.90;;;;;;5036046;28;20434;-81
2020/12/03 07:53:39;;;;;;;18.07;16.60;;;2.40;99.90;;;;;;5045073;28;20522;-80
2020/12/03 07:56:36;;;;;;;18.47;16.77;;;2.40;99.90;;;;;;5034260;28;20442;-81
2020/12/03 07:59:38;;;;;;;17.73;16.23;;;2.40;99.90;;;;;;5033914;28;20492;-80
2020/12/03 08:02:38;;;;;;;17.43;15.97;;;2.40;99.90;;;;;;4965282;28;20452;-81
2020/12/03 08:05:37;;;;;;;17.77;16.17;;;2.50;99.90;;;;;;4956873;28;20441;-82
2020/12/03 08:08:04;;;;;;;18.10;16.60;;;2.50;99.90;;;;;;5040271;28;20519;-82
2020/12/03 08:10:38;;;;;;;18.30;16.80;;;2.50;99.90;;;;;;5089121;22;20494;-80
2020/12/03 08:13:17;;;;;;;19.33;17.50;;;2.60;99.90;;;;;;5053235;28;20494;-80
2020/12/03 08:15:43;;;;;;;18.73;16.70;;;2.60;99.90;;;;;;5071731;28;20843;-80
2020/12/03 08:18:44;;;;;;;18.27;16.53;;;2.60;99.90;;;;;;5053174;28;20452;-80
2020/12/03 08:21:13;;;;;;;19.13;17.33;;;2.60;99.90;;;;;;5051696;28;20837;-80
2020/12/03 08:23:48;;;;;;;19.13;17.37;;;2.60;99.90;;;;;;5051696;28;20431;-80
2020/12/03 08:26:23;;;;;;;18.90;17.10;;;2.60;99.90;;;;;;5033630;28;20885;-80
2020/12/03 08:28:50;;;;;;;18.93;17.13;;;2.70;99.90;;;;;;5032747;28;20795;-80
2020/12/03 08:31:16;;;;;;;18.20;16.50;;;2.70;99.90;;;;;;5033121;28;20489;-81
2020/12/03 08:33:43;;;;;;;18.23;16.53;;;2.70;99.90;;;;;;5033412;28;20475;-80
2020/12/03 08:36:12;;;;;;;19.30;17.50;;;2.70;99.90;;;;;;5053380;28;20499;-80
2020/12/03 08:38:40;;;;;;;18.00;16.30;;;2.70;99.90;;;;;;5036486;28;20446;-79
2020/12/03 08:41:10;;;;;;;17.57;15.97;;;2.80;99.90;;;;;;5036976;28;20456;-78
2020/12/03 08:43:42;;;;;;;16.83;15.33;;;2.80;99.90;;;;;;5054905;28;20443;-78
2020/12/03 08:46:14;;;;;;;15.50;14.10;;;2.80;99.90;;;;;;5054932;28;20439;-78
2020/12/03 08:48:42;;;;;;;16.77;15.30;;;2.90;99.90;;;;;;5035943;28;20544;-78
2020/12/03 08:51:12;;;;;;;16.73;15.23;;;2.90;99.90;;;;;;5053272;28;20789;-76
2020/12/03 08:53:42;;;;;;;17.90;16.20;;;2.90;99.90;;;;;;5053856;28;20486;-76
2020/12/03 08:56:19;;;;;;;17.00;15.50;;;2.90;99.90;;;;;;5053880;28;20442;-76
2020/12/03 08:58:56;;;;;;;17.53;15.87;;;3.00;99.90;;;;;;5037622;28;20448;-77
2020/12/03 09:01:25;;;;;;;17.47;16.07;;;3.10;99.90;;;;;;5055574;28;20427;-77
2020/12/03 09:03:53;;;;;;;17.87;16.00;;;3.20;99.90;;;;;;5055982;28;20459;-76
2020/12/03 09:06:21;;;;;;;17.53;16.00;;;3.20;99.90;;;;;;5037333;28;20849;-77
2020/12/03 09:08:48;;;;;;;16.43;14.93;;;3.30;99.90;;;;;;5035969;28;20456;-79
2020/12/03 09:11:14;;;;;;;16.50;14.97;;;3.40;99.90;;;;;;5036076;28;20929;-77
2020/12/03 09:13:40;;;;;;;15.97;14.73;;;3.50;99.90;;;;;;5035745;28;20907;-78
2020/12/03 09:16:10;;;;;;;16.57;15.20;;;3.50;99.90;;;;;;5036307;28;20786;-76
2020/12/03 09:18:42;;;;;;;16.77;15.33;;;3.60;99.90;;;;;;5053905;28;20443;-77
2020/12/03 09:21:09;;;;;;;16.37;15.00;;;3.60;99.90;;;;;;5035910;28;20792;-76
2020/12/03 09:23:37;;;;;;;15.57;14.37;;;3.70;99.90;;;;;;5036416;28;20440;-77
2020/12/03 09:26:18;;;;;;;15.47;14.30;;;3.70;99.90;;;;;;5035722;28;20441;-77
2020/12/03 09:28:45;;;;;;;15.43;14.20;;;3.70;99.90;;;;;;5053554;28;20441;-77
2020/12/03 09:31:12;;;;;;;15.87;14.57;;;3.70;99.90;;;;;;5053779;28;20437;-77
2020/12/03 09:33:39;;;;;;;14.97;13.67;;;3.50;99.90;;;;;;5035769;28;20480;-76
2020/12/03 09:36:05;;;;;;;14.67;13.57;;;3.50;99.90;;;;;;5035877;28;20503;-77
2020/12/03 09:38:32;;;;;;;15.10;13.90;;;3.50;99.90;;;;;;5052925;28;20441;-76
2020/12/03 09:40:59;;;;;;;15.50;14.20;;;3.50;99.90;;;;;;5036056;28;20504;-77
2020/12/03 09:43:27;;;;;;;15.33;14.13;;;3.40;99.90;;;;;;5034603;28;20654;-78
2020/12/03 09:45:56;;;;;;;14.40;13.27;;;3.50;99.90;;;;;;5035476;28;20967;-77
2020/12/03 09:48:25;;;;;;;14.80;13.47;;;3.50;99.90;;;;;;5034050;28;20465;-76
2020/12/03 09:50:52;;;;;;;15.67;14.23;;;3.60;99.90;;;;;;5034561;28;20461;-77
2020/12/03 09:53:21;;;;;;;14.70;13.50;;;3.60;99.90;;;;;;5053408;28;20560;-77
2020/12/03 09:55:47;;;;;;;14.47;13.17;;;3.80;99.90;;;;;;5053793;28;20479;-77
2020/12/03 09:58:19;;;;;;;15.30;13.90;;;3.80;99.90;;;;;;5034713;28;20446;-77
2020/12/03 10:00:47;;;;;;;14.17;13.07;;;3.80;99.90;;;;;;5035290;28;20478;-77
2020/12/03 10:03:41;;;;;;;14.67;13.47;;;3.80;99.90;;;;;;5053318;28;20495;-77
2020/12/03 10:06:18;;;;;;;14.40;13.30;;;3.90;99.90;;;;;;5052861;28;20430;-77
2020/12/03 10:09:19;;;;;;;15.60;14.10;;;4.00;99.90;;;;;;5034664;28;20451;-77
2020/12/03 10:12:17;;;;;;;15.00;13.80;;;4.00;99.90;;;;;;5052917;28;20994;-77
2020/12/03 10:15:11;;;;;;;15.17;13.83;;;4.00;99.90;;;;;;5031853;28;20442;-77
2020/12/03 10:17:58;;;;;;;15.13;13.83;;;4.00;99.90;;;;;;5033189;28;20426;-77
2020/12/03 10:20:25;;;;;;;15.07;13.87;;;4.00;99.90;;;;;;5015130;28;20457;-76
2020/12/03 10:23:05;;;;;;;14.30;13.17;;;4.00;99.90;;;;;;5015248;28;20435;-76
2020/12/03 10:25:33;;;;;;;14.40;13.30;;;4.00;99.90;;;;;;5051510;28;20441;-77
2020/12/03 10:28:01;;;;;;;15.30;14.00;;;4.20;99.90;;;;;;5035113;28;20450;-77
2020/12/03 10:30:35;;;;;;;15.40;14.07;;;4.20;99.90;;;;;;5034030;28;20987;-77
2020/12/03 10:33:04;;;;;;;15.07;13.87;;;4.10;99.90;;;;;;5052982;28;20484;-77
2020/12/03 10:35:31;;;;;;;15.40;14.20;;;4.20;99.90;;;;;;5052340;28;20429;-76
2020/12/03 10:38:01;;;;;;;16.03;14.63;;;4.10;99.90;;;;;;5034713;28;20860;-76
2020/12/03 10:40:28;;;;;;;15.73;14.40;;;4.20;99.90;;;;;;5034014;28;20877;-76
2020/12/03 10:43:03;;;;;;;15.37;13.97;;;4.30;99.90;;;;;;5052569;28;20496;-77
2020/12/03 10:45:32;;;;;;;14.13;12.93;;;4.30;99.90;;;;;;5052338;28;20424;-77
2020/12/03 10:48:07;;;;;;;15.47;14.03;;;4.40;99.90;;;;;;5052537;28;20437;-76
2020/12/03 10:50:56;;;;;;;14.93;13.83;;;4.40;99.90;;;;;;5051763;28;20981;-75
2020/12/03 10:53:24;;;;;;;15.23;13.93;;;4.40;99.90;;;;;;5052424;28;20465;-75
2020/12/03 10:55:58;;;;;;;14.83;13.40;;;4.40;99.90;;;;;;5051553;28;20992;-77
2020/12/03 10:58:29;;;;;;;15.40;14.07;;;4.50;99.90;;;;;;5051487;28;20571;-77
2020/12/03 11:00:57;;;;;;;14.77;13.47;;;4.60;99.90;;;;;;5034415;28;20522;-77
2020/12/03 11:03:30;;;;;;;14.60;13.40;;;4.60;99.90;;;;;;5052301;28;20475;-77
2020/12/03 11:05:57;;;;;;;14.23;13.13;;;4.60;99.90;;;;;;5033839;28;20449;-76
2020/12/03 11:08:24;;;;;;;14.20;12.83;;;4.60;99.90;;;;;;5051616;28;20440;-77
2020/12/03 11:10:54;;;;;;;13.13;12.13;;;4.70;99.90;;;;;;5033814;28;20470;-77
2020/12/03 11:13:21;;;;;;;13.30;12.30;;;4.70;99.90;;;;;;5051732;28;20473;-77
2020/12/03 11:15:49;;;;;;;13.13;12.13;;;4.70;99.90;;;;;;5033904;28;20443;-77
2020/12/03 11:18:20;;;;;;;12.50;11.60;;;4.70;99.90;;;;;;5051459;28;20468;-76
2020/12/03 11:20:53;;;;;;;12.43;11.43;;;4.70;99.90;;;;;;5051950;28;20828;-77
2020/12/03 11:23:21;;;;;;;11.90;10.90;;;4.70;99.90;;;;;;5051713;28;20561;-77
2020/12/03 11:25:50;;;;;;;11.87;10.93;;;4.60;99.90;;;;;;5034148;28;20850;-77
2020/12/03 11:28:31;;;;;;;12.40;11.43;;;4.60;99.90;;;;;;5051480;28;20866;-78
2020/12/03 11:31:03;;;;;;;12.37;11.47;;;4.60;99.90;;;;;;5032954;28;21146;-76
2020/12/03 11:33:31;;;;;;;12.43;11.43;;;4.60;99.90;;;;;;5033050;28;20481;-77
2020/12/03 11:36:12;;;;;;;12.37;11.37;;;4.60;99.90;;;;;;5032966;28;20957;-77
2020/12/03 11:38:41;;;;;;;12.77;11.67;;;4.70;99.90;;;;;;5051040;28;20441;-75
2020/12/03 11:41:13;;;;;;;13.10;12.00;;;4.70;99.90;;;;;;5051070;28;20656;-76
2020/12/03 11:49:06;;;;;;;12.60;11.40;;;4.70;99.90;;;;;;5049818;28;20969;-76
2020/12/03 11:51:35;;;;;;;13.57;12.27;;;4.70;99.90;;;;;;5033188;28;20487;-76
2020/12/03 11:54:03;;;;;;;12.77;11.70;;;4.80;99.90;;;;;;5033310;28;20475;-77
2020/12/03 11:56:30;;;;;;;12.60;11.60;;;4.80;99.90;;;;;;5033250;28;20497;-75
2020/12/03 11:59:16;;;;;;;12.80;11.80;;;4.70;99.90;;;;;;5050687;28;20448;-76
2020/12/03 12:01:51;;;;;;;13.00;11.80;;;4.80;99.90;;;;;;5051323;28;20429;-76
2020/12/03 12:04:19;;;;;;;11.77;10.83;;;4.80;99.90;;;;;;5051352;28;20426;-77
2020/12/03 12:07:02;;;;;;;13.40;12.03;;;4.80;99.90;;;;;;5033447;28;20452;-76
2020/12/03 12:09:33;;;;;;;13.67;12.40;;;4.80;99.90;;;;;;5050683;28;20223;-76
2020/12/03 12:11:59;;;;;;;12.80;11.70;;;4.90;99.90;;;;;;5050428;28;20574;-76
2020/12/03 12:14:25;;;;;;;12.20;11.17;;;4.90;99.90;;;;;;5050301;28;20473;-76
2020/12/03 12:16:53;;;;;;;12.23;11.23;;;4.90;99.90;;;;;;5033074;28;20480;-77
2020/12/03 12:19:19;;;;;;;12.13;11.03;;;4.90;99.90;;;;;;5032118;28;20527;-76
2020/12/03 12:21:46;;;;;;;13.43;12.33;;;4.90;99.90;;;;;;5050255;28;20533;-75
2020/12/03 12:24:13;;;;;;;13.20;12.10;;;5.00;99.90;;;;;;5032539;28;20644;-77
2020/12/03 12:26:39;;;;;;;14.00;12.50;;;5.00;99.90;;;;;;5050546;28;20214;-77
2020/12/03 12:29:05;;;;;;;14.13;12.27;;;5.00;99.90;;;;;;5031871;28;20469;-76
2020/12/03 12:31:32;;;;;;;13.40;12.20;;;4.90;99.90;;;;;;5031614;28;20491;-76
2020/12/03 12:34:00;;;;;;;13.83;12.63;;;4.90;99.90;;;;;;5048243;28;20469;-76
2020/12/03 12:36:26;;;;;;;14.17;12.87;;;4.90;99.90;;;;;;5050174;28;20192;-77
2020/12/03 12:38:53;;;;;;;14.40;13.10;;;5.00;99.90;;;;;;5049572;28;20223;-76
2020/12/03 12:41:20;;;;;;;14.60;13.23;;;4.90;99.90;;;;;;5049797;28;20667;-76
2020/12/03 12:43:46;;;;;;;15.77;14.27;;;4.90;99.90;;;;;;5032046;28;20500;-76
2020/12/03 12:46:13;;;;;;;15.10;13.67;;;4.90;99.90;;;;;;5032201;28;20265;-76
2020/12/03 12:48:39;;;;;;;15.30;13.70;;;4.80;99.90;;;;;;5031261;28;20982;-76
2020/12/03 12:51:07;;;;;;;14.47;13.07;;;4.80;99.90;;;;;;5050175;28;21012;-76
2020/12/03 12:53:33;;;;;;;15.83;14.23;;;4.80;99.90;;;;;;5032217;28;20462;-75
2020/12/03 12:55:59;;;;;;;14.50;13.20;;;4.90;99.90;;;;;;5032312;28;20466;-76
2020/12/03 12:58:26;;;;;;;15.57;14.17;;;4.90;99.90;;;;;;5049130;28;20479;-76
2020/12/03 13:00:53;;;;;;;14.90;13.53;;;4.90;99.90;;;;;;5049759;28;20458;-77
2020/12/03 13:03:19;;;;;;;15.73;14.17;;;4.90;99.90;;;;;;5032147;28;20226;-77
2020/12/03 13:05:45;;;;;;;16.30;14.70;;;4.90;99.90;;;;;;5032202;28;20848;-77